Leisure City, Florida
Current Conditions -  °F | °C
As of 10:58 PM on Sunday 23 Nov 2014 (Local Time) from KHST Reporting Station
Clear Clear  
Wind Chill: 26°   Ceiling: Unl
Heat Index: 27°   Visibility: 10mi
Dew Point: 24°   Wind: 7mph
Humidity: 89%   Direction: 120°ESE
Pressure: 29.96"   Gusts: NA
Location:  25.5°N, 80.43°W
Report Text: KHST 240358Z AUTO 12006KT 10SM CLR 26/24 A2996 RMK AO2 SLP149 T02570238 $
Loading
Personal Weather Stations






























Interactive Weather Map New forecast layout! Learn more

10-Day Weather Forecast

Advertisements
Track Severe Weather on mobile